sensor_id;sensor_type;location;lat;lon;timestamp;temperature;humidity
38866;DHT22;62686;48.984;8.394;2023-06-05T00:00:08;11.80;99.90
38866;DHT22;62686;48.984;8.394;2023-06-05T00:02:37;11.70;99.90
38866;DHT22;62686;48.984;8.394;2023-06-05T00:05:06;11.80;99.90
38866;DHT22;62686;48.984;8.394;2023-06-05T00:07:36;11.80;99.90
38866;DHT22;62686;48.984;8.394;2023-06-05T00:10:06;11.70;99.90
38866;DHT22;62686;48.984;8.394;2023-06-05T00:12:36;11.70;99.90
38866;DHT22;62686;48.984;8.394;2023-06-05T00:15:07;11.70;99.90
38866;DHT22;62686;48.984;8.394;2023-06-05T00:17:35;11.70;99.90
38866;DHT22;62686;48.984;8.394;2023-06-05T00:20:05;11.70;99.90
38866;DHT22;62686;48.984;8.394;2023-06-05T00:22:36;11.70;99.90
38866;DHT22;62686;48.984;8.394;2023-06-05T00:25:07;11.60;99.90
38866;DHT22;62686;48.984;8.394;2023-06-05T00:27:35;11.60;99.90
38866;DHT22;62686;48.984;8.394;2023-06-05T00:30:04;11.60;99.90
38866;DHT22;62686;48.984;8.394;2023-06-05T00:32:34;11.60;99.90
38866;DHT22;62686;48.984;8.394;2023-06-05T00:35:03;11.60;99.90
38866;DHT22;62686;48.984;8.394;2023-06-05T00:37:31;11.50;99.90
38866;DHT22;62686;48.984;8.394;2023-06-05T00:40:00;11.60;99.90
38866;DHT22;62686;48.984;8.394;2023-06-05T00:42:28;11.60;99.90
38866;DHT22;62686;48.984;8.394;2023-06-05T00:44:56;11.70;99.90
38866;DHT22;62686;48.984;8.394;2023-06-05T00:47:25;11.90;99.90
38866;DHT22;62686;48.984;8.394;2023-06-05T00:49:54;12.10;99.90
38866;DHT22;62686;48.984;8.394;2023-06-05T00:52:23;12.20;99.90
38866;DHT22;62686;48.984;8.394;2023-06-05T00:54:52;12.40;99.90
38866;DHT22;62686;48.984;8.394;2023-06-05T00:57:21;12.50;99.90
38866;DHT22;62686;48.984;8.394;2023-06-05T00:59:51;12.60;99.90
38866;DHT22;62686;48.984;8.394;2023-06-05T01:02:21;12.60;99.90
38866;DHT22;62686;48.984;8.394;2023-06-05T01:04:49;12.60;99.90
38866;DHT22;62686;48.984;8.394;2023-06-05T01:07:19;12.50;99.90
38866;DHT22;62686;48.984;8.394;2023-06-05T01:09:48;12.50;99.90
38866;DHT22;62686;48.984;8.394;2023-06-05T01:12:20;12.50;99.90
38866;DHT22;62686;48.984;8.394;2023-06-05T01:14:49;12.40;99.90
38866;DHT22;62686;48.984;8.394;2023-06-05T01:17:19;12.40;99.90
38866;DHT22;62686;48.984;8.394;2023-06-05T01:19:47;12.50;99.90
38866;DHT22;62686;48.984;8.394;2023-06-05T01:22:20;12.50;99.90
38866;DHT22;62686;48.984;8.394;2023-06-05T01:24:53;12.70;99.90
38866;DHT22;62686;48.984;8.394;2023-06-05T01:27:29;12.70;99.90
38866;DHT22;62686;48.984;8.394;2023-06-05T01:30:03;12.80;99.90
38866;DHT22;62686;48.984;8.394;2023-06-05T01:32:41;12.80;99.90
38866;DHT22;62686;48.984;8.394;2023-06-05T01:35:12;12.90;99.90
38866;DHT22;62686;48.984;8.394;2023-06-05T01:37:46;12.90;99.90
38866;DHT22;62686;48.984;8.394;2023-06-05T01:40:19;12.90;99.90
38866;DHT22;62686;48.984;8.394;2023-06-05T01:42:48;12.80;99.90
38866;DHT22;62686;48.984;8.394;2023-06-05T01:45:18;12.70;99.90
38866;DHT22;62686;48.984;8.394;2023-06-05T01:47:46;12.60;99.90
38866;DHT22;62686;48.984;8.394;2023-06-05T01:50:18;12.40;99.90
38866;DHT22;62686;48.984;8.394;2023-06-05T01:52:47;12.30;99.90
38866;DHT22;62686;48.984;8.394;2023-06-05T01:55:19;12.10;99.90
38866;DHT22;62686;48.984;8.394;2023-06-05T01:57:50;12.10;99.90
38866;DHT22;62686;48.984;8.394;2023-06-05T02:00:19;12.00;99.90
38866;DHT22;62686;48.984;8.394;2023-06-05T02:02:48;11.80;99.90
38866;DHT22;62686;48.984;8.394;2023-06-05T02:05:17;11.80;99.90
38866;DHT22;62686;48.984;8.394;2023-06-05T02:07:48;11.70;99.90
38866;DHT22;62686;48.984;8.394;2023-06-05T02:10:21;11.70;99.90
38866;DHT22;62686;48.984;8.394;2023-06-05T02:12:51;11.60;99.90
38866;DHT22;62686;48.984;8.394;2023-06-05T02:15:19;11.60;99.90
38866;DHT22;62686;48.984;8.394;2023-06-05T02:17:47;11.50;99.90
38866;DHT22;62686;48.984;8.394;2023-06-05T02:20:23;11.50;99.90
38866;DHT22;62686;48.984;8.394;2023-06-05T02:22:52;11.50;99.90
38866;DHT22;62686;48.984;8.394;2023-06-05T02:25:23;11.40;99.90
38866;DHT22;62686;48.984;8.394;2023-06-05T02:27:54;11.30;99.90
38866;DHT22;62686;48.984;8.394;2023-06-05T02:30:22;11.30;99.90
38866;DHT22;62686;48.984;8.394;2023-06-05T02:32:51;11.30;99.90
38866;DHT22;62686;48.984;8.394;2023-06-05T02:35:27;11.20;99.90
38866;DHT22;62686;48.984;8.394;2023-06-05T02:37:56;11.10;99.90
38866;DHT22;62686;48.984;8.394;2023-06-05T02:40:25;11.10;99.90
38866;DHT22;62686;48.984;8.394;2023-06-05T02:42:54;11.20;99.90
38866;DHT22;62686;48.984;8.394;2023-06-05T02:45:22;11.10;99.90
38866;DHT22;62686;48.984;8.394;2023-06-05T02:47:50;11.10;99.90
38866;DHT22;62686;48.984;8.394;2023-06-05T02:50:19;11.10;99.90
38866;DHT22;62686;48.984;8.394;2023-06-05T02:52:47;11.00;99.90
38866;DHT22;62686;48.984;8.394;2023-06-05T02:55:15;10.90;99.90
38866;DHT22;62686;48.984;8.394;2023-06-05T02:57:45;10.90;99.90
38866;DHT22;62686;48.984;8.394;2023-06-05T03:00:16;10.90;99.90
38866;DHT22;62686;48.984;8.394;2023-06-05T03:02:45;10.80;99.90
38866;DHT22;62686;48.984;8.394;2023-06-05T03:05:16;10.80;99.90
38866;DHT22;62686;48.984;8.394;2023-06-05T03:07:51;10.70;99.90
38866;DHT22;62686;48.984;8.394;2023-06-05T03:10:23;10.60;99.90
38866;DHT22;62686;48.984;8.394;2023-06-05T03:12:52;10.60;99.90
38866;DHT22;62686;48.984;8.394;2023-06-05T03:15:21;10.60;99.90
38866;DHT22;62686;48.984;8.394;2023-06-05T03:17:50;10.50;99.90
38866;DHT22;62686;48.984;8.394;2023-06-05T03:20:18;10.60;99.90
38866;DHT22;62686;48.984;8.394;2023-06-05T03:22:46;10.50;99.90
38866;DHT22;62686;48.984;8.394;2023-06-05T03:25:15;10.50;99.90
38866;DHT22;62686;48.984;8.394;2023-06-05T03:27:43;10.50;99.90
38866;DHT22;62686;48.984;8.394;2023-06-05T03:30:14;10.40;99.90
38866;DHT22;62686;48.984;8.394;2023-06-05T03:32:46;10.40;99.90
38866;DHT22;62686;48.984;8.394;2023-06-05T03:35:15;10.40;99.90
38866;DHT22;62686;48.984;8.394;2023-06-05T03:37:44;10.40;99.90
38866;DHT22;62686;48.984;8.394;2023-06-05T03:40:12;10.40;99.90
38866;DHT22;62686;48.984;8.394;2023-06-05T03:42:41;10.50;99.90
38866;DHT22;62686;48.984;8.394;2023-06-05T03:45:10;10.50;99.90
38866;DHT22;62686;48.984;8.394;2023-06-05T03:47:40;10.50;99.90
38866;DHT22;62686;48.984;8.394;2023-06-05T03:50:11;10.50;99.90
38866;DHT22;62686;48.984;8.394;2023-06-05T03:52:39;10.60;99.90
38866;DHT22;62686;48.984;8.394;2023-06-05T03:55:08;10.60;99.90
38866;DHT22;62686;48.984;8.394;2023-06-05T03:57:37;10.70;99.90
38866;DHT22;62686;48.984;8.394;2023-06-05T04:00:06;10.70;99.90
38866;DHT22;62686;48.984;8.394;2023-06-05T04:02:37;10.80;99.90
38866;DHT22;62686;48.984;8.394;2023-06-05T04:05:08;11.00;99.90
38866;DHT22;62686;48.984;8.394;2023-06-05T04:07:40;11.00;99.90
38866;DHT22;62686;48.984;8.394;2023-06-05T04:10:09;11.10;99.90
38866;DHT22;62686;48.984;8.394;2023-06-05T04:12:38;11.20;99.90
38866;DHT22;62686;48.984;8.394;2023-06-05T04:15:07;11.30;99.90
38866;DHT22;62686;48.984;8.394;2023-06-05T04:17:37;11.50;99.90
38866;DHT22;62686;48.984;8.394;2023-06-05T04:20:08;12.10;99.90
38866;DHT22;62686;48.984;8.394;2023-06-05T04:22:37;12.80;99.90
38866;DHT22;62686;48.984;8.394;2023-06-05T04:25:06;13.80;99.90
38866;DHT22;62686;48.984;8.394;2023-06-05T04:27:35;14.70;99.90
38866;DHT22;62686;48.984;8.394;2023-06-05T04:30:04;15.40;99.90
38866;DHT22;62686;48.984;8.394;2023-06-05T04:32:33;16.00;99.90
38866;DHT22;62686;48.984;8.394;2023-06-05T04:35:04;16.60;99.90
38866;DHT22;62686;48.984;8.394;2023-06-05T04:37:35;17.20;99.90
38866;DHT22;62686;48.984;8.394;2023-06-05T04:40:04;17.60;99.90
38866;DHT22;62686;48.984;8.394;2023-06-05T04:42:36;18.00;99.90
38866;DHT22;62686;48.984;8.394;2023-06-05T04:45:06;18.60;99.90
38866;DHT22;62686;48.984;8.394;2023-06-05T04:47:35;19.00;99.90
38866;DHT22;62686;48.984;8.394;2023-06-05T04:50:04;19.10;99.90
38866;DHT22;62686;48.984;8.394;2023-06-05T04:52:35;19.50;99.90
38866;DHT22;62686;48.984;8.394;2023-06-05T04:55:07;19.40;99.90
38866;DHT22;62686;48.984;8.394;2023-06-05T04:57:35;19.50;99.90
38866;DHT22;62686;48.984;8.394;2023-06-05T05:00:04;19.80;99.80
38866;DHT22;62686;48.984;8.394;2023-06-05T05:02:34;20.10;98.80
38866;DHT22;62686;48.984;8.394;2023-06-05T05:05:03;20.60;97.60
38866;DHT22;62686;48.984;8.394;2023-06-05T05:07:32;20.90;96.40
38866;DHT22;62686;48.984;8.394;2023-06-05T05:10:04;21.50;95.60
38866;DHT22;62686;48.984;8.394;2023-06-05T05:12:33;21.90;95.20
38866;DHT22;62686;48.984;8.394;2023-06-05T05:15:02;22.00;92.60
38866;DHT22;62686;48.984;8.394;2023-06-05T05:17:31;21.90;93.00
38866;DHT22;62686;48.984;8.394;2023-06-05T05:19:59;21.90;93.30
38866;DHT22;62686;48.984;8.394;2023-06-05T05:22:27;22.20;92.70
38866;DHT22;62686;48.984;8.394;2023-06-05T05:24:56;22.20;92.30
38866;DHT22;62686;48.984;8.394;2023-06-05T05:27:25;22.50;92.00
38866;DHT22;62686;48.984;8.394;2023-06-05T05:29:54;22.50;91.70
38866;DHT22;62686;48.984;8.394;2023-06-05T05:32:22;23.00;91.70
38866;DHT22;62686;48.984;8.394;2023-06-05T05:34:50;23.00;90.70
38866;DHT22;62686;48.984;8.394;2023-06-05T05:37:18;23.30;89.60
38866;DHT22;62686;48.984;8.394;2023-06-05T05:39:47;23.20;90.60
38866;DHT22;62686;48.984;8.394;2023-06-05T05:42:16;23.50;87.90
38866;DHT22;62686;48.984;8.394;2023-06-05T05:44:45;23.70;89.10
38866;DHT22;62686;48.984;8.394;2023-06-05T05:47:14;23.80;86.00
38866;DHT22;62686;48.984;8.394;2023-06-05T05:49:42;23.90;85.60
38866;DHT22;62686;48.984;8.394;2023-06-05T05:52:10;24.40;85.00
38866;DHT22;62686;48.984;8.394;2023-06-05T05:54:38;24.30;83.80
38866;DHT22;62686;48.984;8.394;2023-06-05T05:57:06;24.30;84.10
38866;DHT22;62686;48.984;8.394;2023-06-05T05:59:35;24.20;81.70
38866;DHT22;62686;48.984;8.394;2023-06-05T06:02:05;24.20;82.40
38866;DHT22;62686;48.984;8.394;2023-06-05T06:04:36;24.60;82.80
38866;DHT22;62686;48.984;8.394;2023-06-05T06:07:05;24.80;81.30
38866;DHT22;62686;48.984;8.394;2023-06-05T06:09:33;24.80;82.50
38866;DHT22;62686;48.984;8.394;2023-06-05T06:12:01;25.00;82.40
38866;DHT22;62686;48.984;8.394;2023-06-05T06:14:32;25.10;82.30
38866;DHT22;62686;48.984;8.394;2023-06-05T06:17:01;24.80;78.50
38866;DHT22;62686;48.984;8.394;2023-06-05T06:19:33;24.90;81.40
38866;DHT22;62686;48.984;8.394;2023-06-05T06:22:02;25.10;78.80
38866;DHT22;62686;48.984;8.394;2023-06-05T06:24:30;25.20;78.60
38866;DHT22;62686;48.984;8.394;2023-06-05T06:26:59;24.90;78.50
38866;DHT22;62686;48.984;8.394;2023-06-05T06:29:29;24.90;78.40
38866;DHT22;62686;48.984;8.394;2023-06-05T06:31:58;24.90;81.40
38866;DHT22;62686;48.984;8.394;2023-06-05T06:34:27;25.50;81.90
38866;DHT22;62686;48.984;8.394;2023-06-05T06:36:57;26.10;77.80
38866;DHT22;62686;48.984;8.394;2023-06-05T06:39:25;26.80;73.50
38866;DHT22;62686;48.984;8.394;2023-06-05T06:41:53;26.90;74.60
38866;DHT22;62686;48.984;8.394;2023-06-05T06:44:22;27.60;72.90
38866;DHT22;62686;48.984;8.394;2023-06-05T06:46:51;27.40;71.40
38866;DHT22;62686;48.984;8.394;2023-06-05T06:49:19;27.40;73.20
38866;DHT22;62686;48.984;8.394;2023-06-05T06:51:48;27.30;71.90
38866;DHT22;62686;48.984;8.394;2023-06-05T06:54:17;27.00;70.90
38866;DHT22;62686;48.984;8.394;2023-06-05T06:56:45;27.20;75.50
38866;DHT22;62686;48.984;8.394;2023-06-05T06:59:15;27.40;72.50
38866;DHT22;62686;48.984;8.394;2023-06-05T07:01:44;27.50;70.50
38866;DHT22;62686;48.984;8.394;2023-06-05T07:04:14;28.00;70.10
38866;DHT22;62686;48.984;8.394;2023-06-05T07:06:43;27.90;68.90
38866;DHT22;62686;48.984;8.394;2023-06-05T07:09:12;27.80;69.80
38866;DHT22;62686;48.984;8.394;2023-06-05T07:11:42;28.30;73.70
38866;DHT22;62686;48.984;8.394;2023-06-05T07:14:10;28.60;68.00
38866;DHT22;62686;48.984;8.394;2023-06-05T07:16:38;28.70;66.00
38866;DHT22;62686;48.984;8.394;2023-06-05T07:19:06;28.30;66.30
38866;DHT22;62686;48.984;8.394;2023-06-05T07:21:34;28.90;66.20
38866;DHT22;62686;48.984;8.394;2023-06-05T07:24:06;29.30;64.40
38866;DHT22;62686;48.984;8.394;2023-06-05T07:26:34;29.20;63.10
38866;DHT22;62686;48.984;8.394;2023-06-05T07:29:04;29.50;63.90
38866;DHT22;62686;48.984;8.394;2023-06-05T07:31:32;29.30;65.00
38866;DHT22;62686;48.984;8.394;2023-06-05T07:34:01;30.00;65.80
38866;DHT22;62686;48.984;8.394;2023-06-05T07:36:29;30.30;63.70
38866;DHT22;62686;48.984;8.394;2023-06-05T07:38:58;30.50;65.40
38866;DHT22;62686;48.984;8.394;2023-06-05T07:41:26;31.00;61.50
38866;DHT22;62686;48.984;8.394;2023-06-05T07:43:55;31.10;60.20
38866;DHT22;62686;48.984;8.394;2023-06-05T07:46:25;31.00;60.90
38866;DHT22;62686;48.984;8.394;2023-06-05T07:48:56;30.30;62.60
38866;DHT22;62686;48.984;8.394;2023-06-05T07:51:24;30.10;65.10
38866;DHT22;62686;48.984;8.394;2023-06-05T07:53:53;30.60;60.80
38866;DHT22;62686;48.984;8.394;2023-06-05T07:56:21;31.10;60.20
38866;DHT22;62686;48.984;8.394;2023-06-05T07:58:52;30.80;61.80
38866;DHT22;62686;48.984;8.394;2023-06-05T08:01:20;31.50;59.90
38866;DHT22;62686;48.984;8.394;2023-06-05T08:03:50;31.80;63.00
38866;DHT22;62686;48.984;8.394;2023-06-05T08:06:19;32.50;64.10
38866;DHT22;62686;48.984;8.394;2023-06-05T08:08:47;32.70;60.20
38866;DHT22;62686;48.984;8.394;2023-06-05T08:11:16;33.30;60.80
38866;DHT22;62686;48.984;8.394;2023-06-05T08:13:44;33.00;58.80
38866;DHT22;62686;48.984;8.394;2023-06-05T08:16:18;33.60;57.10
38866;DHT22;62686;48.984;8.394;2023-06-05T08:18:46;32.70;57.50
38866;DHT22;62686;48.984;8.394;2023-06-05T08:21:16;32.20;59.30
38866;DHT22;62686;48.984;8.394;2023-06-05T08:23:44;32.70;59.90
38866;DHT22;62686;48.984;8.394;2023-06-05T08:26:13;32.30;58.70
38866;DHT22;62686;48.984;8.394;2023-06-05T08:28:41;31.90;59.70
38866;DHT22;62686;48.984;8.394;2023-06-05T08:31:10;31.90;58.90
38866;DHT22;62686;48.984;8.394;2023-06-05T08:33:38;32.40;57.70
38866;DHT22;62686;48.984;8.394;2023-06-05T08:36:07;32.50;57.20
38866;DHT22;62686;48.984;8.394;2023-06-05T08:38:36;32.40;57.20
38866;DHT22;62686;48.984;8.394;2023-06-05T08:41:07;31.90;58.70
38866;DHT22;62686;48.984;8.394;2023-06-05T08:43:38;32.30;57.90
38866;DHT22;62686;48.984;8.394;2023-06-05T08:46:08;32.10;57.40
38866;DHT22;62686;48.984;8.394;2023-06-05T08:48:41;32.00;57.90
38866;DHT22;62686;48.984;8.394;2023-06-05T08:51:10;31.80;58.00
38866;DHT22;62686;48.984;8.394;2023-06-05T08:53:42;32.20;58.60
38866;DHT22;62686;48.984;8.394;2023-06-05T08:56:12;32.00;57.90
38866;DHT22;62686;48.984;8.394;2023-06-05T08:58:44;32.50;57.90
38866;DHT22;62686;48.984;8.394;2023-06-05T09:01:12;32.90;57.50
38866;DHT22;62686;48.984;8.394;2023-06-05T09:03:40;32.90;59.30
38866;DHT22;62686;48.984;8.394;2023-06-05T09:06:10;32.50;58.20
38866;DHT22;62686;48.984;8.394;2023-06-05T09:08:40;32.50;58.10
38866;DHT22;62686;48.984;8.394;2023-06-05T09:11:25;33.60;57.90
38866;DHT22;62686;48.984;8.394;2023-06-05T09:13:55;33.90;57.80
38866;DHT22;62686;48.984;8.394;2023-06-05T09:16:33;34.10;56.90
38866;DHT22;62686;48.984;8.394;2023-06-05T09:19:02;34.80;57.20
38866;DHT22;62686;48.984;8.394;2023-06-05T09:21:31;34.50;54.50
38866;DHT22;62686;48.984;8.394;2023-06-05T09:24:15;35.10;58.20
38866;DHT22;62686;48.984;8.394;2023-06-05T09:26:54;35.20;57.70
38866;DHT22;62686;48.984;8.394;2023-06-05T09:29:24;34.30;55.10
38866;DHT22;62686;48.984;8.394;2023-06-05T09:31:58;33.90;56.20
38866;DHT22;62686;48.984;8.394;2023-06-05T09:34:28;33.80;57.70
38866;DHT22;62686;48.984;8.394;2023-06-05T09:36:58;33.90;56.70
38866;DHT22;62686;48.984;8.394;2023-06-05T09:39:29;33.70;58.00
38866;DHT22;62686;48.984;8.394;2023-06-05T09:41:59;33.80;56.10
38866;DHT22;62686;48.984;8.394;2023-06-05T09:44:28;34.00;56.60
38866;DHT22;62686;48.984;8.394;2023-06-05T09:47:00;33.70;58.10
38866;DHT22;62686;48.984;8.394;2023-06-05T09:49:30;32.90;57.80
38866;DHT22;62686;48.984;8.394;2023-06-05T09:51:59;32.90;59.10
38866;DHT22;62686;48.984;8.394;2023-06-05T09:54:30;32.70;59.00
38866;DHT22;62686;48.984;8.394;2023-06-05T09:57:00;32.60;58.40
38866;DHT22;62686;48.984;8.394;2023-06-05T09:59:31;32.50;59.90
38866;DHT22;62686;48.984;8.394;2023-06-05T10:02:01;32.90;61.90
38866;DHT22;62686;48.984;8.394;2023-06-05T10:04:37;32.80;60.40
38866;DHT22;62686;48.984;8.394;2023-06-05T10:07:06;32.60;59.50
38866;DHT22;62686;48.984;8.394;2023-06-05T10:09:40;33.10;59.00
38866;DHT22;62686;48.984;8.394;2023-06-05T10:12:09;33.60;59.50
38866;DHT22;62686;48.984;8.394;2023-06-05T10:14:42;34.20;61.60
38866;DHT22;62686;48.984;8.394;2023-06-05T10:17:13;34.60;58.50
38866;DHT22;62686;48.984;8.394;2023-06-05T10:19:42;33.60;60.40
38866;DHT22;62686;48.984;8.394;2023-06-05T10:22:11;33.40;59.60
38866;DHT22;62686;48.984;8.394;2023-06-05T10:24:44;33.50;60.20
38866;DHT22;62686;48.984;8.394;2023-06-05T10:27:39;33.40;63.40
38866;DHT22;62686;48.984;8.394;2023-06-05T10:33:29;32.30;63.50
38866;DHT22;62686;48.984;8.394;2023-06-05T10:36:09;31.00;64.70
38866;DHT22;62686;48.984;8.394;2023-06-05T10:38:41;30.10;68.20
38866;DHT22;62686;48.984;8.394;2023-06-05T10:41:12;29.50;69.20
38866;DHT22;62686;48.984;8.394;2023-06-05T10:43:52;28.80;71.00
38866;DHT22;62686;48.984;8.394;2023-06-05T10:46:29;28.40;76.30
38866;DHT22;62686;48.984;8.394;2023-06-05T10:49:12;28.10;76.20
38866;DHT22;62686;48.984;8.394;2023-06-05T10:51:43;27.80;76.50
38866;DHT22;62686;48.984;8.394;2023-06-05T10:54:13;27.80;77.80
38866;DHT22;62686;48.984;8.394;2023-06-05T10:57:00;27.70;79.80
38866;DHT22;62686;48.984;8.394;2023-06-05T10:59:30;27.60;79.30
38866;DHT22;62686;48.984;8.394;2023-06-05T11:02:21;27.50;81.40
38866;DHT22;62686;48.984;8.394;2023-06-05T11:05:09;27.20;78.90
38866;DHT22;62686;48.984;8.394;2023-06-05T11:07:40;27.10;76.70
38866;DHT22;62686;48.984;8.394;2023-06-05T11:10:14;27.50;77.90
38866;DHT22;62686;48.984;8.394;2023-06-05T11:12:59;28.30;77.00
38866;DHT22;62686;48.984;8.394;2023-06-05T11:15:44;28.20;71.20
38866;DHT22;62686;48.984;8.394;2023-06-05T11:18:32;28.90;72.90
38866;DHT22;62686;48.984;8.394;2023-06-05T11:21:03;30.50;69.00
38866;DHT22;62686;48.984;8.394;2023-06-05T11:23:31;31.40;59.90
38866;DHT22;62686;48.984;8.394;2023-06-05T11:29:14;30.50;62.80
38866;DHT22;62686;48.984;8.394;2023-06-05T11:31:44;31.90;61.80
38866;DHT22;62686;48.984;8.394;2023-06-05T11:34:13;33.50;59.40
38866;DHT22;62686;48.984;8.394;2023-06-05T11:36:41;34.00;58.40
38866;DHT22;62686;48.984;8.394;2023-06-05T11:39:10;34.00;57.10
38866;DHT22;62686;48.984;8.394;2023-06-05T11:41:46;34.60;58.50
38866;DHT22;62686;48.984;8.394;2023-06-05T11:44:29;35.00;57.20
38866;DHT22;62686;48.984;8.394;2023-06-05T11:46:59;34.50;54.30
38866;DHT22;62686;48.984;8.394;2023-06-05T11:49:30;34.30;54.80
38866;DHT22;62686;48.984;8.394;2023-06-05T11:51:59;33.70;55.50
38866;DHT22;62686;48.984;8.394;2023-06-05T11:54:29;34.00;54.10
38866;DHT22;62686;48.984;8.394;2023-06-05T11:56:59;34.10;55.00
38866;DHT22;62686;48.984;8.394;2023-06-05T11:59:37;34.90;55.20
38866;DHT22;62686;48.984;8.394;2023-06-05T12:02:05;34.30;54.90
38866;DHT22;62686;48.984;8.394;2023-06-05T12:04:34;34.20;54.50
38866;DHT22;62686;48.984;8.394;2023-06-05T12:07:03;33.80;55.30
38866;DHT22;62686;48.984;8.394;2023-06-05T12:09:32;33.00;54.20
38866;DHT22;62686;48.984;8.394;2023-06-05T12:12:07;33.40;55.70
38866;DHT22;62686;48.984;8.394;2023-06-05T12:14:38;33.90;53.20
38866;DHT22;62686;48.984;8.394;2023-06-05T12:17:11;34.30;53.50
38866;DHT22;62686;48.984;8.394;2023-06-05T12:19:39;34.80;55.40
38866;DHT22;62686;48.984;8.394;2023-06-05T12:22:08;35.40;54.60
38866;DHT22;62686;48.984;8.394;2023-06-05T12:24:37;35.60;53.30
38866;DHT22;62686;48.984;8.394;2023-06-05T12:27:06;35.10;53.90
38866;DHT22;62686;48.984;8.394;2023-06-05T12:29:35;35.30;51.60
38866;DHT22;62686;48.984;8.394;2023-06-05T12:32:21;35.30;52.10
38866;DHT22;62686;48.984;8.394;2023-06-05T12:34:50;35.00;52.20
38866;DHT22;62686;48.984;8.394;2023-06-05T12:37:25;35.10;52.90
38866;DHT22;62686;48.984;8.394;2023-06-05T12:39:58;35.10;51.40
38866;DHT22;62686;48.984;8.394;2023-06-05T12:42:27;35.10;52.60
38866;DHT22;62686;48.984;8.394;2023-06-05T12:44:56;35.00;49.40
38866;DHT22;62686;48.984;8.394;2023-06-05T12:47:26;35.50;50.30
38866;DHT22;62686;48.984;8.394;2023-06-05T12:49:54;35.90;52.60
38866;DHT22;62686;48.984;8.394;2023-06-05T12:52:23;35.50;50.50
38866;DHT22;62686;48.984;8.394;2023-06-05T12:54:53;35.60;49.70
38866;DHT22;62686;48.984;8.394;2023-06-05T12:57:23;35.00;48.90
38866;DHT22;62686;48.984;8.394;2023-06-05T12:59:53;35.10;50.00
38866;DHT22;62686;48.984;8.394;2023-06-05T13:02:22;35.30;50.80
38866;DHT22;62686;48.984;8.394;2023-06-05T13:04:53;34.90;51.80
38866;DHT22;62686;48.984;8.394;2023-06-05T13:07:22;34.80;48.00
38866;DHT22;62686;48.984;8.394;2023-06-05T13:09:50;35.70;50.40
38866;DHT22;62686;48.984;8.394;2023-06-05T13:12:20;35.40;47.90
38866;DHT22;62686;48.984;8.394;2023-06-05T13:14:49;35.30;48.60
38866;DHT22;62686;48.984;8.394;2023-06-05T13:17:18;34.60;48.60
38866;DHT22;62686;48.984;8.394;2023-06-05T13:19:46;34.40;50.50
38866;DHT22;62686;48.984;8.394;2023-06-05T13:22:16;34.00;49.50
38866;DHT22;62686;48.984;8.394;2023-06-05T13:24:46;34.00;50.00
38866;DHT22;62686;48.984;8.394;2023-06-05T13:27:16;34.10;50.30
38866;DHT22;62686;48.984;8.394;2023-06-05T13:29:45;34.50;49.90
38866;DHT22;62686;48.984;8.394;2023-06-05T13:32:14;34.80;50.80
38866;DHT22;62686;48.984;8.394;2023-06-05T13:34:42;34.30;49.30
38866;DHT22;62686;48.984;8.394;2023-06-05T13:37:11;34.50;49.70
38866;DHT22;62686;48.984;8.394;2023-06-05T13:39:41;34.50;48.80
38866;DHT22;62686;48.984;8.394;2023-06-05T13:42:09;33.80;49.10
38866;DHT22;62686;48.984;8.394;2023-06-05T13:44:38;34.10;49.30
38866;DHT22;62686;48.984;8.394;2023-06-05T13:47:07;35.00;49.30
38866;DHT22;62686;48.984;8.394;2023-06-05T13:49:36;35.50;49.50
38866;DHT22;62686;48.984;8.394;2023-06-05T13:52:05;36.20;49.10
38866;DHT22;62686;48.984;8.394;2023-06-05T13:54:34;36.10;47.70
38866;DHT22;62686;48.984;8.394;2023-06-05T13:57:04;35.70;49.10
38866;DHT22;62686;48.984;8.394;2023-06-05T13:59:32;35.10;48.90
38866;DHT22;62686;48.984;8.394;2023-06-05T14:02:01;34.80;50.80
38866;DHT22;62686;48.984;8.394;2023-06-05T14:04:29;35.50;49.10
38866;DHT22;62686;48.984;8.394;2023-06-05T14:06:58;35.50;49.20
38866;DHT22;62686;48.984;8.394;2023-06-05T14:09:27;35.30;48.40
38866;DHT22;62686;48.984;8.394;2023-06-05T14:11:56;35.70;48.30
38866;DHT22;62686;48.984;8.394;2023-06-05T14:14:28;35.70;47.10
38866;DHT22;62686;48.984;8.394;2023-06-05T14:16:57;35.70;47.20
38866;DHT22;62686;48.984;8.394;2023-06-05T14:19:25;35.50;47.50
38866;DHT22;62686;48.984;8.394;2023-06-05T14:21:56;35.20;47.80
38866;DHT22;62686;48.984;8.394;2023-06-05T14:24:25;35.80;45.70
38866;DHT22;62686;48.984;8.394;2023-06-05T14:26:54;35.60;46.30
38866;DHT22;62686;48.984;8.394;2023-06-05T14:29:22;35.60;47.60
38866;DHT22;62686;48.984;8.394;2023-06-05T14:31:52;34.40;49.00
38866;DHT22;62686;48.984;8.394;2023-06-05T14:34:20;33.90;47.30
38866;DHT22;62686;48.984;8.394;2023-06-05T14:36:50;34.10;48.00
38866;DHT22;62686;48.984;8.394;2023-06-05T14:39:19;34.40;48.50
38866;DHT22;62686;48.984;8.394;2023-06-05T14:41:48;34.90;47.10
38866;DHT22;62686;48.984;8.394;2023-06-05T14:44:16;34.60;46.90
38866;DHT22;62686;48.984;8.394;2023-06-05T14:46:48;34.00;47.80
38866;DHT22;62686;48.984;8.394;2023-06-05T14:49:18;33.70;48.00
38866;DHT22;62686;48.984;8.394;2023-06-05T14:51:49;33.70;45.90
38866;DHT22;62686;48.984;8.394;2023-06-05T14:54:18;33.70;47.90
38866;DHT22;62686;48.984;8.394;2023-06-05T14:56:46;33.60;46.30
38866;DHT22;62686;48.984;8.394;2023-06-05T14:59:15;33.50;46.30
38866;DHT22;62686;48.984;8.394;2023-06-05T15:01:46;33.90;45.50
38866;DHT22;62686;48.984;8.394;2023-06-05T15:04:15;33.50;47.10
38866;DHT22;62686;48.984;8.394;2023-06-05T15:06:45;33.50;46.80
38866;DHT22;62686;48.984;8.394;2023-06-05T15:09:13;33.20;45.90
38866;DHT22;62686;48.984;8.394;2023-06-05T15:11:43;32.90;47.60
38866;DHT22;62686;48.984;8.394;2023-06-05T15:14:12;32.80;43.30
38866;DHT22;62686;48.984;8.394;2023-06-05T15:16:40;33.30;43.90
38866;DHT22;62686;48.984;8.394;2023-06-05T15:19:09;33.10;44.40
38866;DHT22;62686;48.984;8.394;2023-06-05T15:21:37;32.80;44.60
38866;DHT22;62686;48.984;8.394;2023-06-05T15:24:07;32.80;45.50
38866;DHT22;62686;48.984;8.394;2023-06-05T15:26:35;33.00;46.00
38866;DHT22;62686;48.984;8.394;2023-06-05T15:29:05;32.80;45.00
38866;DHT22;62686;48.984;8.394;2023-06-05T15:31:34;32.90;44.90
38866;DHT22;62686;48.984;8.394;2023-06-05T15:34:04;32.60;46.50
38866;DHT22;62686;48.984;8.394;2023-06-05T15:36:32;32.00;47.00
38866;DHT22;62686;48.984;8.394;2023-06-05T15:39:01;31.80;47.40
38866;DHT22;62686;48.984;8.394;2023-06-05T15:41:31;31.30;46.60
38866;DHT22;62686;48.984;8.394;2023-06-05T15:43:59;31.60;47.50
38866;DHT22;62686;48.984;8.394;2023-06-05T15:46:28;31.90;47.30
38866;DHT22;62686;48.984;8.394;2023-06-05T15:48:56;32.10;46.20
38866;DHT22;62686;48.984;8.394;2023-06-05T15:51:25;31.90;45.40
38866;DHT22;62686;48.984;8.394;2023-06-05T15:53:55;31.50;46.70